sensor_id;sensor_type;location;lat;lon;timestamp;temperature;humidity
5059;DHT22;2548;52.050;11.036;2023-11-22T00:01:49;1.60;99.90
5059;DHT22;2548;52.050;11.036;2023-11-22T00:04:20;1.50;99.90
5059;DHT22;2548;52.050;11.036;2023-11-22T00:06:47;1.40;99.90
5059;DHT22;2548;52.050;11.036;2023-11-22T00:09:16;1.40;99.90
5059;DHT22;2548;52.050;11.036;2023-11-22T00:11:48;1.30;99.90
5059;DHT22;2548;52.050;11.036;2023-11-22T00:14:15;1.30;99.90
5059;DHT22;2548;52.050;11.036;2023-11-22T00:16:43;1.20;99.90
5059;DHT22;2548;52.050;11.036;2023-11-22T00:19:13;1.20;99.90
5059;DHT22;2548;52.050;11.036;2023-11-22T00:21:45;1.20;99.90
5059;DHT22;2548;52.050;11.036;2023-11-22T00:24:20;1.20;99.90
5059;DHT22;2548;52.050;11.036;2023-11-22T00:26:48;1.10;99.90
5059;DHT22;2548;52.050;11.036;2023-11-22T00:29:14;1.10;99.90
5059;DHT22;2548;52.050;11.036;2023-11-22T00:31:41;1.00;99.90
5059;DHT22;2548;52.050;11.036;2023-11-22T00:34:17;1.00;99.90
5059;DHT22;2548;52.050;11.036;2023-11-22T00:36:45;0.90;99.90
5059;DHT22;2548;52.050;11.036;2023-11-22T00:39:15;0.90;99.90
5059;DHT22;2548;52.050;11.036;2023-11-22T00:41:50;0.80;99.90
5059;DHT22;2548;52.050;11.036;2023-11-22T00:44:17;0.70;99.90
5059;DHT22;2548;52.050;11.036;2023-11-22T00:46:45;0.70;99.90
5059;DHT22;2548;52.050;11.036;2023-11-22T00:49:15;0.60;99.90
5059;DHT22;2548;52.050;11.036;2023-11-22T00:51:43;0.60;99.90
5059;DHT22;2548;52.050;11.036;2023-11-22T00:54:11;0.50;99.90
5059;DHT22;2548;52.050;11.036;2023-11-22T00:56:39;0.50;99.90
5059;DHT22;2548;52.050;11.036;2023-11-22T00:59:15;0.40;99.90
5059;DHT22;2548;52.050;11.036;2023-11-22T01:01:48;0.40;99.90
5059;DHT22;2548;52.050;11.036;2023-11-22T01:04:18;0.30;99.90
5059;DHT22;2548;52.050;11.036;2023-11-22T01:06:49;0.40;99.90
5059;DHT22;2548;52.050;11.036;2023-11-22T01:09:22;0.40;99.90
5059;DHT22;2548;52.050;11.036;2023-11-22T01:11:49;0.40;99.90
5059;DHT22;2548;52.050;11.036;2023-11-22T01:14:21;0.40;99.90
5059;DHT22;2548;52.050;11.036;2023-11-22T01:16:48;0.30;99.90
5059;DHT22;2548;52.050;11.036;2023-11-22T01:19:22;0.30;99.90
5059;DHT22;2548;52.050;11.036;2023-11-22T01:21:53;0.20;99.90
5059;DHT22;2548;52.050;11.036;2023-11-22T01:24:23;0.20;99.90
5059;DHT22;2548;52.050;11.036;2023-11-22T01:26:52;0.20;99.90
5059;DHT22;2548;52.050;11.036;2023-11-22T01:29:23;0.20;99.90
5059;DHT22;2548;52.050;11.036;2023-11-22T01:31:52;0.20;99.90
5059;DHT22;2548;52.050;11.036;2023-11-22T01:34:22;0.20;99.90
5059;DHT22;2548;52.050;11.036;2023-11-22T01:36:56;0.20;99.90
5059;DHT22;2548;52.050;11.036;2023-11-22T01:39:26;0.10;99.90
5059;DHT22;2548;52.050;11.036;2023-11-22T01:41:57;0.10;99.90
5059;DHT22;2548;52.050;11.036;2023-11-22T01:44:29;0.10;99.90
5059;DHT22;2548;52.050;11.036;2023-11-22T01:46:56;0.10;99.90
5059;DHT22;2548;52.050;11.036;2023-11-22T01:49:23;0.00;99.90
5059;DHT22;2548;52.050;11.036;2023-11-22T01:51:51;0.10;99.90
5059;DHT22;2548;52.050;11.036;2023-11-22T01:54:18;0.00;99.90
5059;DHT22;2548;52.050;11.036;2023-11-22T01:56:48;0.00;99.90
5059;DHT22;2548;52.050;11.036;2023-11-22T01:59:20;0.00;99.90
5059;DHT22;2548;52.050;11.036;2023-11-22T02:01:53;0.00;99.90
5059;DHT22;2548;52.050;11.036;2023-11-22T02:04:23;0.00;99.90
5059;DHT22;2548;52.050;11.036;2023-11-22T02:06:54;0.00;99.90
5059;DHT22;2548;52.050;11.036;2023-11-22T02:09:21;0.00;99.90
5059;DHT22;2548;52.050;11.036;2023-11-22T02:11:54;0.00;99.90
5059;DHT22;2548;52.050;11.036;2023-11-22T02:14:21;-0.10;99.90
5059;DHT22;2548;52.050;11.036;2023-11-22T02:16:50;-0.10;99.90
5059;DHT22;2548;52.050;11.036;2023-11-22T02:19:18;-0.10;99.90
5059;DHT22;2548;52.050;11.036;2023-11-22T02:21:46;0.00;99.90
5059;DHT22;2548;52.050;11.036;2023-11-22T02:24:24;0.00;99.90
5059;DHT22;2548;52.050;11.036;2023-11-22T02:26:55;0.00;99.90
5059;DHT22;2548;52.050;11.036;2023-11-22T02:29:23;0.00;99.90
5059;DHT22;2548;52.050;11.036;2023-11-22T02:31:56;0.00;99.90
5059;DHT22;2548;52.050;11.036;2023-11-22T02:34:26;0.00;99.90
5059;DHT22;2548;52.050;11.036;2023-11-22T02:36:54;0.00;99.90
5059;DHT22;2548;52.050;11.036;2023-11-22T02:42:55;-0.10;99.90
5059;DHT22;2548;52.050;11.036;2023-11-22T02:45:29;-0.10;99.90
5059;DHT22;2548;52.050;11.036;2023-11-22T02:48:00;-0.20;99.90
5059;DHT22;2548;52.050;11.036;2023-11-22T02:50:38;-0.20;99.90
5059;DHT22;2548;52.050;11.036;2023-11-22T02:53:15;-0.20;99.90
5059;DHT22;2548;52.050;11.036;2023-11-22T02:55:47;-0.20;99.90
5059;DHT22;2548;52.050;11.036;2023-11-22T02:58:21;-0.20;99.90
5059;DHT22;2548;52.050;11.036;2023-11-22T03:00:54;-0.20;99.90
5059;DHT22;2548;52.050;11.036;2023-11-22T03:03:25;-0.20;99.90
5059;DHT22;2548;52.050;11.036;2023-11-22T03:05:52;-0.20;99.90
5059;DHT22;2548;52.050;11.036;2023-11-22T03:08:24;-0.20;99.90
5059;DHT22;2548;52.050;11.036;2023-11-22T03:10:56;-0.20;99.90
5059;DHT22;2548;52.050;11.036;2023-11-22T03:13:29;-0.20;99.90
5059;DHT22;2548;52.050;11.036;2023-11-22T03:15:57;-0.30;99.90
5059;DHT22;2548;52.050;11.036;2023-11-22T03:18:24;-0.30;99.90
5059;DHT22;2548;52.050;11.036;2023-11-22T03:20:52;-0.30;99.90
5059;DHT22;2548;52.050;11.036;2023-11-22T03:23:27;-0.30;99.90
5059;DHT22;2548;52.050;11.036;2023-11-22T03:26:08;-0.30;99.90
5059;DHT22;2548;52.050;11.036;2023-11-22T03:28:36;-0.30;99.90
5059;DHT22;2548;52.050;11.036;2023-11-22T03:31:09;-0.30;99.90
5059;DHT22;2548;52.050;11.036;2023-11-22T03:33:36;-0.30;99.90
5059;DHT22;2548;52.050;11.036;2023-11-22T03:36:07;-0.40;99.90
5059;DHT22;2548;52.050;11.036;2023-11-22T03:38:46;-0.30;99.90
5059;DHT22;2548;52.050;11.036;2023-11-22T03:41:20;-0.30;99.90
5059;DHT22;2548;52.050;11.036;2023-11-22T03:43:48;-0.30;99.90
5059;DHT22;2548;52.050;11.036;2023-11-22T03:46:23;-0.30;99.90
5059;DHT22;2548;52.050;11.036;2023-11-22T03:48:51;-0.30;99.90
5059;DHT22;2548;52.050;11.036;2023-11-22T03:51:18;-0.30;99.90
5059;DHT22;2548;52.050;11.036;2023-11-22T03:53:45;-0.30;99.90
5059;DHT22;2548;52.050;11.036;2023-11-22T03:56:23;-0.40;99.90
5059;DHT22;2548;52.050;11.036;2023-11-22T03:58:51;-0.50;99.90
5059;DHT22;2548;52.050;11.036;2023-11-22T04:01:18;-0.50;99.90
5059;DHT22;2548;52.050;11.036;2023-11-22T04:03:46;-0.60;99.90
5059;DHT22;2548;52.050;11.036;2023-11-22T04:06:15;-0.50;99.90
5059;DHT22;2548;52.050;11.036;2023-11-22T04:08:42;-0.60;99.90
5059;DHT22;2548;52.050;11.036;2023-11-22T04:11:11;-0.50;99.90
5059;DHT22;2548;52.050;11.036;2023-11-22T04:13:39;-0.50;99.90
5059;DHT22;2548;52.050;11.036;2023-11-22T04:16:07;-0.50;99.90
5059;DHT22;2548;52.050;11.036;2023-11-22T04:18:35;-0.50;99.90
5059;DHT22;2548;52.050;11.036;2023-11-22T04:21:03;-0.50;99.90
5059;DHT22;2548;52.050;11.036;2023-11-22T04:23:31;-0.50;99.90
5059;DHT22;2548;52.050;11.036;2023-11-22T04:25:59;-0.50;99.90
5059;DHT22;2548;52.050;11.036;2023-11-22T04:28:27;-0.50;99.90
5059;DHT22;2548;52.050;11.036;2023-11-22T04:30:57;-0.50;99.90
5059;DHT22;2548;52.050;11.036;2023-11-22T04:33:24;-0.50;99.90
5059;DHT22;2548;52.050;11.036;2023-11-22T04:35:54;-0.50;99.90
5059;DHT22;2548;52.050;11.036;2023-11-22T04:38:22;-0.50;99.90
5059;DHT22;2548;52.050;11.036;2023-11-22T04:40:49;-0.50;99.90
5059;DHT22;2548;52.050;11.036;2023-11-22T04:43:17;-0.50;99.90
5059;DHT22;2548;52.050;11.036;2023-11-22T04:45:44;-0.60;99.90
5059;DHT22;2548;52.050;11.036;2023-11-22T04:48:13;-0.60;99.90
5059;DHT22;2548;52.050;11.036;2023-11-22T04:50:41;-0.60;99.90
5059;DHT22;2548;52.050;11.036;2023-11-22T04:53:10;-0.60;99.90
5059;DHT22;2548;52.050;11.036;2023-11-22T04:55:37;-0.60;99.90
5059;DHT22;2548;52.050;11.036;2023-11-22T04:58:04;-0.60;99.90
5059;DHT22;2548;52.050;11.036;2023-11-22T05:00:32;-0.60;99.90
5059;DHT22;2548;52.050;11.036;2023-11-22T05:02:59;-0.70;99.90
5059;DHT22;2548;52.050;11.036;2023-11-22T05:05:28;-0.80;99.90
5059;DHT22;2548;52.050;11.036;2023-11-22T05:07:55;-0.80;99.90
5059;DHT22;2548;52.050;11.036;2023-11-22T05:10:23;-0.80;99.90
5059;DHT22;2548;52.050;11.036;2023-11-22T05:12:50;-0.80;99.90
5059;DHT22;2548;52.050;11.036;2023-11-22T05:15:17;-0.80;99.90
5059;DHT22;2548;52.050;11.036;2023-11-22T05:17:45;-0.70;99.90
5059;DHT22;2548;52.050;11.036;2023-11-22T05:20:12;-0.80;99.90
5059;DHT22;2548;52.050;11.036;2023-11-22T05:22:41;-0.80;99.90
5059;DHT22;2548;52.050;11.036;2023-11-22T05:25:08;-0.80;99.90
5059;DHT22;2548;52.050;11.036;2023-11-22T05:27:37;-0.80;99.90
5059;DHT22;2548;52.050;11.036;2023-11-22T05:30:05;-0.80;99.90
5059;DHT22;2548;52.050;11.036;2023-11-22T05:32:33;-0.80;99.90
5059;DHT22;2548;52.050;11.036;2023-11-22T05:35:00;-0.80;99.90
5059;DHT22;2548;52.050;11.036;2023-11-22T05:37:28;-0.80;99.90
5059;DHT22;2548;52.050;11.036;2023-11-22T05:39:57;-0.90;99.90
5059;DHT22;2548;52.050;11.036;2023-11-22T05:42:25;-1.00;99.90
5059;DHT22;2548;52.050;11.036;2023-11-22T05:44:52;-1.00;99.90
5059;DHT22;2548;52.050;11.036;2023-11-22T05:47:20;-1.00;99.90
5059;DHT22;2548;52.050;11.036;2023-11-22T05:49:47;-1.00;99.90
5059;DHT22;2548;52.050;11.036;2023-11-22T05:52:15;-1.00;99.90
5059;DHT22;2548;52.050;11.036;2023-11-22T05:54:42;-1.00;99.90
5059;DHT22;2548;52.050;11.036;2023-11-22T05:57:11;-1.00;99.90
5059;DHT22;2548;52.050;11.036;2023-11-22T05:59:38;-1.00;99.90
5059;DHT22;2548;52.050;11.036;2023-11-22T06:02:06;-0.90;99.90
5059;DHT22;2548;52.050;11.036;2023-11-22T06:04:33;-0.90;99.90
5059;DHT22;2548;52.050;11.036;2023-11-22T06:07:01;-0.80;99.90
5059;DHT22;2548;52.050;11.036;2023-11-22T06:09:29;-0.80;99.90
5059;DHT22;2548;52.050;11.036;2023-11-22T06:11:56;-0.80;99.90
5059;DHT22;2548;52.050;11.036;2023-11-22T06:14:25;-0.80;99.90
5059;DHT22;2548;52.050;11.036;2023-11-22T06:16:52;-0.80;99.90
5059;DHT22;2548;52.050;11.036;2023-11-22T06:19:20;-0.80;99.90
5059;DHT22;2548;52.050;11.036;2023-11-22T06:21:47;-0.80;99.90
5059;DHT22;2548;52.050;11.036;2023-11-22T06:24:15;-0.90;99.90
5059;DHT22;2548;52.050;11.036;2023-11-22T06:26:42;-0.90;99.90
5059;DHT22;2548;52.050;11.036;2023-11-22T06:29:12;-0.90;99.90
5059;DHT22;2548;52.050;11.036;2023-11-22T06:31:42;-1.00;99.90
5059;DHT22;2548;52.050;11.036;2023-11-22T06:34:09;-1.00;99.90
5059;DHT22;2548;52.050;11.036;2023-11-22T06:36:36;-1.00;99.90
5059;DHT22;2548;52.050;11.036;2023-11-22T06:39:04;-1.00;99.90
5059;DHT22;2548;52.050;11.036;2023-11-22T06:41:32;-1.10;99.90
5059;DHT22;2548;52.050;11.036;2023-11-22T06:43:59;-1.00;99.90
5059;DHT22;2548;52.050;11.036;2023-11-22T06:46:28;-1.00;99.90
5059;DHT22;2548;52.050;11.036;2023-11-22T06:48:57;-1.10;99.90
5059;DHT22;2548;52.050;11.036;2023-11-22T06:51:25;-1.20;99.90
5059;DHT22;2548;52.050;11.036;2023-11-22T06:53:52;-1.20;99.90
5059;DHT22;2548;52.050;11.036;2023-11-22T06:56:20;-1.30;99.90
5059;DHT22;2548;52.050;11.036;2023-11-22T06:58:48;-1.40;99.90
5059;DHT22;2548;52.050;11.036;2023-11-22T07:01:16;-1.40;99.90
5059;DHT22;2548;52.050;11.036;2023-11-22T07:03:43;-1.50;99.90
5059;DHT22;2548;52.050;11.036;2023-11-22T07:06:12;-1.50;99.90
5059;DHT22;2548;52.050;11.036;2023-11-22T07:08:40;-1.50;99.90
5059;DHT22;2548;52.050;11.036;2023-11-22T07:11:08;-1.50;99.90
5059;DHT22;2548;52.050;11.036;2023-11-22T07:13:37;-1.50;99.90
5059;DHT22;2548;52.050;11.036;2023-11-22T07:16:06;-1.50;99.90
5059;DHT22;2548;52.050;11.036;2023-11-22T07:18:34;-1.40;99.90
5059;DHT22;2548;52.050;11.036;2023-11-22T07:21:01;-1.40;99.90
5059;DHT22;2548;52.050;11.036;2023-11-22T07:23:30;-1.40;99.90
5059;DHT22;2548;52.050;11.036;2023-11-22T07:25:57;-1.40;99.90
5059;DHT22;2548;52.050;11.036;2023-11-22T07:28:25;-1.30;99.90
5059;DHT22;2548;52.050;11.036;2023-11-22T07:30:52;-1.20;99.90
5059;DHT22;2548;52.050;11.036;2023-11-22T07:33:20;-1.10;99.90
5059;DHT22;2548;52.050;11.036;2023-11-22T07:35:47;-1.00;99.90
5059;DHT22;2548;52.050;11.036;2023-11-22T07:38:15;-0.90;99.90
5059;DHT22;2548;52.050;11.036;2023-11-22T07:40:44;-0.80;99.90
5059;DHT22;2548;52.050;11.036;2023-11-22T07:43:12;-0.70;99.90
5059;DHT22;2548;52.050;11.036;2023-11-22T07:45:40;-0.60;99.90
5059;DHT22;2548;52.050;11.036;2023-11-22T07:48:11;-0.50;99.90
5059;DHT22;2548;52.050;11.036;2023-11-22T07:50:39;-0.50;99.90
5059;DHT22;2548;52.050;11.036;2023-11-22T07:53:09;-0.40;99.90
5059;DHT22;2548;52.050;11.036;2023-11-22T07:55:38;-0.40;99.90
5059;DHT22;2548;52.050;11.036;2023-11-22T07:58:06;-0.30;99.90
5059;DHT22;2548;52.050;11.036;2023-11-22T08:00:34;-0.30;99.90
5059;DHT22;2548;52.050;11.036;2023-11-22T08:03:03;-0.20;99.90
5059;DHT22;2548;52.050;11.036;2023-11-22T08:05:32;-0.20;99.90
5059;DHT22;2548;52.050;11.036;2023-11-22T08:08:03;-0.10;99.90
5059;DHT22;2548;52.050;11.036;2023-11-22T08:10:33;0.00;99.90
5059;DHT22;2548;52.050;11.036;2023-11-22T08:13:01;0.00;99.90
5059;DHT22;2548;52.050;11.036;2023-11-22T08:15:31;0.10;99.90
5059;DHT22;2548;52.050;11.036;2023-11-22T08:17:58;0.20;99.90
5059;DHT22;2548;52.050;11.036;2023-11-22T08:20:26;0.20;99.90
5059;DHT22;2548;52.050;11.036;2023-11-22T08:22:54;0.30;99.90
5059;DHT22;2548;52.050;11.036;2023-11-22T08:25:21;0.30;99.90
5059;DHT22;2548;52.050;11.036;2023-11-22T08:27:49;0.30;99.90
5059;DHT22;2548;52.050;11.036;2023-11-22T08:30:16;0.40;99.90
5059;DHT22;2548;52.050;11.036;2023-11-22T08:32:47;0.50;99.90
5059;DHT22;2548;52.050;11.036;2023-11-22T08:35:20;0.60;99.90
5059;DHT22;2548;52.050;11.036;2023-11-22T08:37:48;0.60;99.90
5059;DHT22;2548;52.050;11.036;2023-11-22T08:40:17;0.70;99.90
5059;DHT22;2548;52.050;11.036;2023-11-22T08:42:46;0.80;99.90
5059;DHT22;2548;52.050;11.036;2023-11-22T08:45:14;0.90;99.90
5059;DHT22;2548;52.050;11.036;2023-11-22T08:47:42;0.90;99.90
5059;DHT22;2548;52.050;11.036;2023-11-22T08:50:11;1.00;99.90
5059;DHT22;2548;52.050;11.036;2023-11-22T08:52:38;1.10;99.90
5059;DHT22;2548;52.050;11.036;2023-11-22T08:55:08;1.20;99.90
5059;DHT22;2548;52.050;11.036;2023-11-22T08:57:35;1.20;99.90
5059;DHT22;2548;52.050;11.036;2023-11-22T09:00:04;1.20;99.90
5059;DHT22;2548;52.050;11.036;2023-11-22T09:02:35;1.20;99.90
5059;DHT22;2548;52.050;11.036;2023-11-22T09:05:03;1.20;99.90
5059;DHT22;2548;52.050;11.036;2023-11-22T09:07:35;1.20;99.90
5059;DHT22;2548;52.050;11.036;2023-11-22T09:10:04;1.20;99.90
5059;DHT22;2548;52.050;11.036;2023-11-22T09:12:36;1.10;99.90
5059;DHT22;2548;52.050;11.036;2023-11-22T09:15:06;1.20;99.90
5059;DHT22;2548;52.050;11.036;2023-11-22T09:17:36;1.40;99.90
5059;DHT22;2548;52.050;11.036;2023-11-22T09:20:06;1.50;99.90
5059;DHT22;2548;52.050;11.036;2023-11-22T09:22:41;1.40;99.90
5059;DHT22;2548;52.050;11.036;2023-11-22T09:25:11;1.40;99.90
5059;DHT22;2548;52.050;11.036;2023-11-22T09:27:39;1.30;99.90
5059;DHT22;2548;52.050;11.036;2023-11-22T09:30:07;1.40;99.90
5059;DHT22;2548;52.050;11.036;2023-11-22T09:32:44;1.40;99.90
5059;DHT22;2548;52.050;11.036;2023-11-22T09:35:13;1.40;99.90
5059;DHT22;2548;52.050;11.036;2023-11-22T09:37:42;1.50;99.90
5059;DHT22;2548;52.050;11.036;2023-11-22T09:40:11;1.40;99.90
5059;DHT22;2548;52.050;11.036;2023-11-22T09:42:43;1.40;99.90
5059;DHT22;2548;52.050;11.036;2023-11-22T09:45:16;1.30;99.90
5059;DHT22;2548;52.050;11.036;2023-11-22T09:47:45;1.30;99.90
5059;DHT22;2548;52.050;11.036;2023-11-22T09:50:18;1.20;99.90
5059;DHT22;2548;52.050;11.036;2023-11-22T09:52:50;1.20;99.90
5059;DHT22;2548;52.050;11.036;2023-11-22T09:55:20;1.30;99.90
5059;DHT22;2548;52.050;11.036;2023-11-22T09:57:49;1.30;99.90
5059;DHT22;2548;52.050;11.036;2023-11-22T10:00:18;1.40;99.90
5059;DHT22;2548;52.050;11.036;2023-11-22T10:02:47;1.50;99.90
5059;DHT22;2548;52.050;11.036;2023-11-22T10:05:21;1.60;99.90
5059;DHT22;2548;52.050;11.036;2023-11-22T10:07:51;1.70;99.90
5059;DHT22;2548;52.050;11.036;2023-11-22T10:10:19;1.80;99.90
5059;DHT22;2548;52.050;11.036;2023-11-22T10:12:56;1.80;99.90
5059;DHT22;2548;52.050;11.036;2023-11-22T10:15:27;1.90;99.90
5059;DHT22;2548;52.050;11.036;2023-11-22T10:17:56;2.00;99.90
5059;DHT22;2548;52.050;11.036;2023-11-22T10:20:24;2.00;99.90
5059;DHT22;2548;52.050;11.036;2023-11-22T10:22:56;2.00;99.90
5059;DHT22;2548;52.050;11.036;2023-11-22T10:25:24;1.90;99.90
5059;DHT22;2548;52.050;11.036;2023-11-22T10:27:52;1.90;99.90
5059;DHT22;2548;52.050;11.036;2023-11-22T10:30:22;1.90;99.90
5059;DHT22;2548;52.050;11.036;2023-11-22T10:32:53;1.90;99.90
5059;DHT22;2548;52.050;11.036;2023-11-22T10:35:24;2.00;99.90
5059;DHT22;2548;52.050;11.036;2023-11-22T10:37:59;2.00;99.90
5059;DHT22;2548;52.050;11.036;2023-11-22T10:40:36;2.10;99.90
5059;DHT22;2548;52.050;11.036;2023-11-22T10:43:05;2.10;99.90
5059;DHT22;2548;52.050;11.036;2023-11-22T10:45:38;2.10;99.90
5059;DHT22;2548;52.050;11.036;2023-11-22T10:48:07;2.10;99.90
5059;DHT22;2548;52.050;11.036;2023-11-22T10:50:43;2.10;99.90
5059;DHT22;2548;52.050;11.036;2023-11-22T10:53:15;2.10;99.90
5059;DHT22;2548;52.050;11.036;2023-11-22T10:55:59;2.10;99.90
5059;DHT22;2548;52.050;11.036;2023-11-22T10:58:42;2.10;99.90
5059;DHT22;2548;52.050;11.036;2023-11-22T11:01:15;2.10;99.90
5059;DHT22;2548;52.050;11.036;2023-11-22T11:03:48;2.00;99.90
5059;DHT22;2548;52.050;11.036;2023-11-22T11:06:22;1.90;99.90
5059;DHT22;2548;52.050;11.036;2023-11-22T11:09:00;2.10;99.90
5059;DHT22;2548;52.050;11.036;2023-11-22T11:11:32;2.20;99.90
5059;DHT22;2548;52.050;11.036;2023-11-22T11:14:00;2.30;99.90
5059;DHT22;2548;52.050;11.036;2023-11-22T11:16:29;2.40;99.90
5059;DHT22;2548;52.050;11.036;2023-11-22T11:19:01;2.50;99.90
5059;DHT22;2548;52.050;11.036;2023-11-22T11:21:29;2.50;99.90
5059;DHT22;2548;52.050;11.036;2023-11-22T11:24:00;2.40;99.90
5059;DHT22;2548;52.050;11.036;2023-11-22T11:26:32;2.40;99.90
5059;DHT22;2548;52.050;11.036;2023-11-22T11:29:02;2.20;99.90
5059;DHT22;2548;52.050;11.036;2023-11-22T11:31:38;2.30;99.90
5059;DHT22;2548;52.050;11.036;2023-11-22T11:34:10;2.30;99.90
5059;DHT22;2548;52.050;11.036;2023-11-22T11:36:44;2.30;99.90
5059;DHT22;2548;52.050;11.036;2023-11-22T11:39:26;2.40;99.90
5059;DHT22;2548;52.050;11.036;2023-11-22T11:42:09;2.30;99.90
5059;DHT22;2548;52.050;11.036;2023-11-22T11:44:51;2.20;99.90
5059;DHT22;2548;52.050;11.036;2023-11-22T11:47:23;2.20;99.90
5059;DHT22;2548;52.050;11.036;2023-11-22T11:49:52;2.40;99.90
5059;DHT22;2548;52.050;11.036;2023-11-22T11:52:24;2.50;99.90
5059;DHT22;2548;52.050;11.036;2023-11-22T11:54:53;2.60;99.90
5059;DHT22;2548;52.050;11.036;2023-11-22T11:57:21;2.60;99.90
5059;DHT22;2548;52.050;11.036;2023-11-22T11:59:50;2.80;99.90
5059;DHT22;2548;52.050;11.036;2023-11-22T12:02:18;2.80;99.90
5059;DHT22;2548;52.050;11.036;2023-11-22T12:04:46;2.70;99.90
5059;DHT22;2548;52.050;11.036;2023-11-22T12:07:14;2.80;99.90
5059;DHT22;2548;52.050;11.036;2023-11-22T12:09:41;2.80;99.90
5059;DHT22;2548;52.050;11.036;2023-11-22T12:12:12;2.60;99.90
5059;DHT22;2548;52.050;11.036;2023-11-22T12:14:39;2.60;99.90
5059;DHT22;2548;52.050;11.036;2023-11-22T12:17:10;2.50;99.90
5059;DHT22;2548;52.050;11.036;2023-11-22T12:19:43;2.40;99.90
5059;DHT22;2548;52.050;11.036;2023-11-22T12:22:26;2.40;99.90
5059;DHT22;2548;52.050;11.036;2023-11-22T12:24:54;2.40;99.90
5059;DHT22;2548;52.050;11.036;2023-11-22T12:27:23;2.30;99.90
5059;DHT22;2548;52.050;11.036;2023-11-22T12:29:51;2.40;99.90
5059;DHT22;2548;52.050;11.036;2023-11-22T12:32:23;2.40;99.90
5059;DHT22;2548;52.050;11.036;2023-11-22T12:34:51;2.40;99.90
5059;DHT22;2548;52.050;11.036;2023-11-22T12:37:23;2.30;99.90
5059;DHT22;2548;52.050;11.036;2023-11-22T12:39:51;2.30;99.90
5059;DHT22;2548;52.050;11.036;2023-11-22T12:42:23;2.30;99.90
5059;DHT22;2548;52.050;11.036;2023-11-22T12:44:57;2.30;99.90
5059;DHT22;2548;52.050;11.036;2023-11-22T12:47:31;2.40;99.90
5059;DHT22;2548;52.050;11.036;2023-11-22T12:50:02;2.50;99.90
5059;DHT22;2548;52.050;11.036;2023-11-22T12:52:30;2.50;99.90
5059;DHT22;2548;52.050;11.036;2023-11-22T12:55:06;2.40;99.90
5059;DHT22;2548;52.050;11.036;2023-11-22T12:57:42;2.30;99.90
5059;DHT22;2548;52.050;11.036;2023-11-22T13:00:12;2.40;99.90
5059;DHT22;2548;52.050;11.036;2023-11-22T13:02:42;2.30;99.90
5059;DHT22;2548;52.050;11.036;2023-11-22T13:05:19;2.20;99.90
5059;DHT22;2548;52.050;11.036;2023-11-22T13:07:53;2.20;99.90
5059;DHT22;2548;52.050;11.036;2023-11-22T13:10:33;2.10;99.90
5059;DHT22;2548;52.050;11.036;2023-11-22T13:13:03;2.20;99.90
5059;DHT22;2548;52.050;11.036;2023-11-22T13:15:31;2.20;99.90
5059;DHT22;2548;52.050;11.036;2023-11-22T13:17:58;2.20;99.90
5059;DHT22;2548;52.050;11.036;2023-11-22T13:20:26;2.20;99.90
5059;DHT22;2548;52.050;11.036;2023-11-22T13:22:55;2.20;99.90
5059;DHT22;2548;52.050;11.036;2023-11-22T13:25:25;2.10;99.90
5059;DHT22;2548;52.050;11.036;2023-11-22T13:27:53;2.10;99.90
5059;DHT22;2548;52.050;11.036;2023-11-22T13:30:31;2.00;99.90
5059;DHT22;2548;52.050;11.036;2023-11-22T13:33:12;2.00;99.90
5059;DHT22;2548;52.050;11.036;2023-11-22T13:35:42;2.00;99.90
5059;DHT22;2548;52.050;11.036;2023-11-22T13:38:10;1.90;99.90
5059;DHT22;2548;52.050;11.036;2023-11-22T13:40:42;1.90;99.90
5059;DHT22;2548;52.050;11.036;2023-11-22T13:43:14;1.90;99.90
5059;DHT22;2548;52.050;11.036;2023-11-22T13:45:44;1.90;99.90
5059;DHT22;2548;52.050;11.036;2023-11-22T13:48:42;1.90;99.90
5059;DHT22;2548;52.050;11.036;2023-11-22T13:51:18;2.00;99.90
5059;DHT22;2548;52.050;11.036;2023-11-22T13:53:46;2.00;99.90
5059;DHT22;2548;52.050;11.036;2023-11-22T13:56:19;2.00;99.90
5059;DHT22;2548;52.050;11.036;2023-11-22T13:58:53;2.00;99.90
5059;DHT22;2548;52.050;11.036;2023-11-22T14:01:22;1.90;99.90
5059;DHT22;2548;52.050;11.036;2023-11-22T14:03:50;1.90;99.90
5059;DHT22;2548;52.050;11.036;2023-11-22T14:06:21;1.80;99.90
5059;DHT22;2548;52.050;11.036;2023-11-22T14:08:50;1.80;99.90
5059;DHT22;2548;52.050;11.036;2023-11-22T14:11:17;1.70;99.90
5059;DHT22;2548;52.050;11.036;2023-11-22T14:13:48;1.70;99.90
5059;DHT22;2548;52.050;11.036;2023-11-22T14:16:16;1.70;99.90
5059;DHT22;2548;52.050;11.036;2023-11-22T14:18:45;1.60;99.90
5059;DHT22;2548;52.050;11.036;2023-11-22T14:21:22;1.60;99.90
5059;DHT22;2548;52.050;11.036;2023-11-22T14:23:52;1.50;99.90
5059;DHT22;2548;52.050;11.036;2023-11-22T14:26:20;1.50;99.90
5059;DHT22;2548;52.050;11.036;2023-11-22T14:28:49;1.40;99.90
5059;DHT22;2548;52.050;11.036;2023-11-22T14:31:16;1.50;99.90
5059;DHT22;2548;52.050;11.036;2023-11-22T14:33:46;1.40;99.90
5059;DHT22;2548;52.050;11.036;2023-11-22T14:36:13;1.40;99.90
5059;DHT22;2548;52.050;11.036;2023-11-22T14:38:44;1.40;99.90
5059;DHT22;2548;52.050;11.036;2023-11-22T14:41:14;1.40;99.90
5059;DHT22;2548;52.050;11.036;2023-11-22T14:43:50;1.30;99.90
5059;DHT22;2548;52.050;11.036;2023-11-22T14:46:18;1.30;99.90
5059;DHT22;2548;52.050;11.036;2023-11-22T14:48:47;1.20;99.90
5059;DHT22;2548;52.050;11.036;2023-11-22T14:51:18;1.20;99.90
5059;DHT22;2548;52.050;11.036;2023-11-22T14:53:45;1.30;99.90
5059;DHT22;2548;52.050;11.036;2023-11-22T14:56:21;1.20;99.90
5059;DHT22;2548;52.050;11.036;2023-11-22T14:58:49;1.20;99.90
5059;DHT22;2548;52.050;11.036;2023-11-22T15:01:23;1.10;99.90
5059;DHT22;2548;52.050;11.036;2023-11-22T15:03:55;1.10;99.90
5059;DHT22;2548;52.050;11.036;2023-11-22T15:06:23;1.10;99.90
5059;DHT22;2548;52.050;11.036;2023-11-22T15:08:51;1.10;99.90
5059;DHT22;2548;52.050;11.036;2023-11-22T15:11:22;1.10;99.90
5059;DHT22;2548;52.050;11.036;2023-11-22T15:13:49;1.00;99.90
5059;DHT22;2548;52.050;11.036;2023-11-22T15:16:20;1.00;99.90
5059;DHT22;2548;52.050;11.036;2023-11-22T15:18:55;1.00;99.90
5059;DHT22;2548;52.050;11.036;2023-11-22T15:21:23;1.00;99.90
5059;DHT22;2548;52.050;11.036;2023-11-22T15:23:54;1.00;99.90
5059;DHT22;2548;52.050;11.036;2023-11-22T15:26:24;1.00;99.90
5059;DHT22;2548;52.050;11.036;2023-11-22T15:28:53;0.90;99.90
5059;DHT22;2548;52.050;11.036;2023-11-22T15:31:21;1.00;99.90
5059;DHT22;2548;52.050;11.036;2023-11-22T15:33:56;0.90;99.90
5059;DHT22;2548;52.050;11.036;2023-11-22T15:36:27;1.00;99.90
5059;DHT22;2548;52.050;11.036;2023-11-22T15:38:55;0.90;99.90
5059;DHT22;2548;52.050;11.036;2023-11-22T15:41:23;0.90;99.90
5059;DHT22;2548;52.050;11.036;2023-11-22T15:43:54;0.80;99.90
5059;DHT22;2548;52.050;11.036;2023-11-22T15:46:27;0.90;99.90
5059;DHT22;2548;52.050;11.036;2023-11-22T15:48:57;0.90;99.90
5059;DHT22;2548;52.050;11.036;2023-11-22T15:51:25;0.90;99.90
5059;DHT22;2548;52.050;11.036;2023-11-22T15:53:54;0.90;99.90
5059;DHT22;2548;52.050;11.036;2023-11-22T15:56:29;0.90;99.90
5059;DHT22;2548;52.050;11.036;2023-11-22T15:58:57;0.90;99.90
5059;DHT22;2548;52.050;11.036;2023-11-22T16:01:27;0.90;99.90
5059;DHT22;2548;52.050;11.036;2023-11-22T16:04:05;0.90;99.90
5059;DHT22;2548;52.050;11.036;2023-11-22T16:06:34;0.90;99.90
5059;DHT22;2548;52.050;11.036;2023-11-22T16:09:03;0.90;99.90
5059;DHT22;2548;52.050;11.036;2023-11-22T16:11:34;0.90;99.90
5059;DHT22;2548;52.050;11.036;2023-11-22T16:14:02;0.90;99.90
5059;DHT22;2548;52.050;11.036;2023-11-22T16:16:30;0.80;99.90
5059;DHT22;2548;52.050;11.036;2023-11-22T16:18:58;0.80;99.90